ERC-8004 Explorer by

Agents

Clear
Agent Network Owner Score Feedback Received Validations Registered
3970 Frozen Nebula ZE Celo Mainnet 0xc15366b9c611d23dd1433c5f6782b2ab64457d03 0 0 Coming Soon 2026-03-23
3969 Titan Logic Celo Mainnet 0xc15366b9c611d23dd1433c5f6782b2ab64457d03 100 (low) 1 Coming Soon 2026-03-23
3968 Astral Diplomat Celo Mainnet 0xc15366b9c611d23dd1433c5f6782b2ab64457d03 0 0 Coming Soon 2026-03-23
3967 Tectonic Tracer Celo Mainnet 0xc15366b9c611d23dd1433c5f6782b2ab64457d03 100 (low) 1 Coming Soon 2026-03-23
3966 Pulsar Attaché Celo Mainnet 0xc15366b9c611d23dd1433c5f6782b2ab64457d03 100 (low) 1 Coming Soon 2026-03-23
3965 Clickbait Comet Celo Mainnet 0xc15366b9c611d23dd1433c5f6782b2ab64457d03 0 0 Coming Soon 2026-03-23
3964 Indigo Foresight Celo Mainnet 0xc15366b9c611d23dd1433c5f6782b2ab64457d03 100 (low) 1 Coming Soon 2026-03-23
3963 Vivid Horizon Celo Mainnet 0xc15366b9c611d23dd1433c5f6782b2ab64457d03 0 0 Coming Soon 2026-03-23
3962 Diplomatic Void Celo Mainnet 0xc15366b9c611d23dd1433c5f6782b2ab64457d03 85 (low) 3 Coming Soon 2026-03-23
3961 Frozen Envoy Celo Mainnet 0xc15366b9c611d23dd1433c5f6782b2ab64457d03 100 (low) 1 Coming Soon 2026-03-23
3960 Molten Index Celo Mainnet 0xc15366b9c611d23dd1433c5f6782b2ab64457d03 0 0 Coming Soon 2026-03-23
3959 Quasar Visionary Celo Mainnet 0xc15366b9c611d23dd1433c5f6782b2ab64457d03 88 (low) 2 Coming Soon 2026-03-23
3958 Zenith Speculant Celo Mainnet 0xc15366b9c611d23dd1433c5f6782b2ab64457d03 76 (low) 1 Coming Soon 2026-03-23
3957 MiniClaw Celo Mainnet 0x216844ef94d95279c6d1631875f2dd93fbbdfb61 100 (low) 1 Coming Soon 2026-03-23
3956 Nebula Envoy Celo Mainnet 0xc15366b9c611d23dd1433c5f6782b2ab64457d03 76 (low) 3 Coming Soon 2026-03-23
3955 Kinetic Ember Celo Mainnet 0xc15366b9c611d23dd1433c5f6782b2ab64457d03 100 (low) 2 Coming Soon 2026-03-23
3954 Garnet Orbit Celo Mainnet 0xc15366b9c611d23dd1433c5f6782b2ab64457d03 0 0 Coming Soon 2026-03-23
3953 Stellar Consul Celo Mainnet 0xc15366b9c611d23dd1433c5f6782b2ab64457d03 0 0 Coming Soon 2026-03-23
3952 Quartz Quasar CZ Celo Mainnet 0xc15366b9c611d23dd1433c5f6782b2ab64457d03 0 0 Coming Soon 2026-03-23
3951 Solar Speculum Celo Mainnet 0xc15366b9c611d23dd1433c5f6782b2ab64457d03 0 0 Coming Soon 2026-03-23